sensor_id;sensor_type;location;lat;lon;timestamp;temperature;humidity
55598;DHT22;41463;53.186;5.552;2023-02-15T00:01:27;4.60;99.90
55598;DHT22;41463;53.186;5.552;2023-02-15T00:03:56;2.60;99.90
55598;DHT22;41463;53.186;5.552;2023-02-15T00:06:26;1.30;99.90
55598;DHT22;41463;53.186;5.552;2023-02-15T00:08:56;2.90;99.90
55598;DHT22;41463;53.186;5.552;2023-02-15T00:11:27;3.00;99.90
55598;DHT22;41463;53.186;5.552;2023-02-15T00:14:22;2.60;99.90
55598;DHT22;41463;53.186;5.552;2023-02-15T00:16:52;2.00;99.90
55598;DHT22;41463;53.186;5.552;2023-02-15T00:19:23;3.00;99.90
55598;DHT22;41463;53.186;5.552;2023-02-15T00:21:54;4.10;99.90
55598;DHT22;41463;53.186;5.552;2023-02-15T00:24:23;2.60;99.90
55598;DHT22;41463;53.186;5.552;2023-02-15T00:26:51;2.60;99.90
55598;DHT22;41463;53.186;5.552;2023-02-15T00:29:18;2.70;99.90
55598;DHT22;41463;53.186;5.552;2023-02-15T00:31:48;2.30;99.90
55598;DHT22;41463;53.186;5.552;2023-02-15T00:34:25;4.40;99.90
55598;DHT22;41463;53.186;5.552;2023-02-15T00:36:54;3.90;99.90
55598;DHT22;41463;53.186;5.552;2023-02-15T00:39:20;2.70;99.90
55598;DHT22;41463;53.186;5.552;2023-02-15T00:41:56;2.60;99.90
55598;DHT22;41463;53.186;5.552;2023-02-15T00:44:29;3.70;99.90
55598;DHT22;41463;53.186;5.552;2023-02-15T00:47:01;4.20;99.90
55598;DHT22;41463;53.186;5.552;2023-02-15T00:49:29;3.70;99.90
55598;DHT22;41463;53.186;5.552;2023-02-15T00:51:57;1.90;99.90
55598;DHT22;41463;53.186;5.552;2023-02-15T00:54:41;2.90;99.90
55598;DHT22;41463;53.186;5.552;2023-02-15T00:57:11;2.40;99.90
55598;DHT22;41463;53.186;5.552;2023-02-15T00:59:40;2.50;99.90
55598;DHT22;41463;53.186;5.552;2023-02-15T01:02:06;2.70;99.90
55598;DHT22;41463;53.186;5.552;2023-02-15T01:04:35;4.40;99.90
55598;DHT22;41463;53.186;5.552;2023-02-15T01:07:04;1.40;99.90
55598;DHT22;41463;53.186;5.552;2023-02-15T01:09:32;2.60;99.90
55598;DHT22;41463;53.186;5.552;2023-02-15T01:12:11;2.50;99.90
55598;DHT22;41463;53.186;5.552;2023-02-15T01:14:39;4.20;99.90
55598;DHT22;41463;53.186;5.552;2023-02-15T01:17:19;4.00;99.90
55598;DHT22;41463;53.186;5.552;2023-02-15T01:19:50;3.00;99.90
55598;DHT22;41463;53.186;5.552;2023-02-15T01:22:24;2.50;99.90
55598;DHT22;41463;53.186;5.552;2023-02-15T01:24:52;3.40;99.90
55598;DHT22;41463;53.186;5.552;2023-02-15T01:27:23;2.50;99.90
55598;DHT22;41463;53.186;5.552;2023-02-15T01:29:49;4.60;99.90
55598;DHT22;41463;53.186;5.552;2023-02-15T01:34:50;2.40;99.90
55598;DHT22;41463;53.186;5.552;2023-02-15T01:37:18;1.40;99.90
55598;DHT22;41463;53.186;5.552;2023-02-15T01:39:49;2.70;99.90
55598;DHT22;41463;53.186;5.552;2023-02-15T01:42:30;2.50;99.90
55598;DHT22;41463;53.186;5.552;2023-02-15T01:45:01;2.50;99.90
55598;DHT22;41463;53.186;5.552;2023-02-15T01:47:45;2.30;99.90
55598;DHT22;41463;53.186;5.552;2023-02-15T01:50:42;2.40;99.90
55598;DHT22;41463;53.186;5.552;2023-02-15T01:53:37;2.20;99.90
55598;DHT22;41463;53.186;5.552;2023-02-15T01:56:23;2.20;99.90
55598;DHT22;41463;53.186;5.552;2023-02-15T01:58:52;2.70;99.90
55598;DHT22;41463;53.186;5.552;2023-02-15T02:01:19;2.00;99.90
55598;DHT22;41463;53.186;5.552;2023-02-15T02:06:29;2.10;99.90
55598;DHT22;41463;53.186;5.552;2023-02-15T02:08:58;2.40;99.90
55598;DHT22;41463;53.186;5.552;2023-02-15T02:11:29;0.50;99.90
55598;DHT22;41463;53.186;5.552;2023-02-15T02:13:55;3.90;99.90
55598;DHT22;41463;53.186;5.552;2023-02-15T02:16:37;2.00;99.90
55598;DHT22;41463;53.186;5.552;2023-02-15T02:34:07;1.90;99.90
55598;DHT22;41463;53.186;5.552;2023-02-15T02:37:14;2.10;99.90
55598;DHT22;41463;53.186;5.552;2023-02-15T02:40:00;1.70;99.90
55598;DHT22;41463;53.186;5.552;2023-02-15T02:48:12;3.40;99.90
55598;DHT22;41463;53.186;5.552;2023-02-15T02:50:44;3.40;99.90
55598;DHT22;41463;53.186;5.552;2023-02-15T02:53:12;1.70;99.90
55598;DHT22;41463;53.186;5.552;2023-02-15T02:56:11;3.50;99.90
55598;DHT22;41463;53.186;5.552;2023-02-15T03:01:35;1.70;99.90
55598;DHT22;41463;53.186;5.552;2023-02-15T03:04:10;1.70;99.90
55598;DHT22;41463;53.186;5.552;2023-02-15T03:06:50;2.00;99.90
55598;DHT22;41463;53.186;5.552;2023-02-15T03:09:24;2.00;99.90
55598;DHT22;41463;53.186;5.552;2023-02-15T03:11:51;1.90;99.90
55598;DHT22;41463;53.186;5.552;2023-02-15T03:14:32;2.10;99.90
55598;DHT22;41463;53.186;5.552;2023-02-15T03:16:58;1.90;99.90
55598;DHT22;41463;53.186;5.552;2023-02-15T03:19:31;1.60;99.90
55598;DHT22;41463;53.186;5.552;2023-02-15T03:25:04;1.80;99.90
55598;DHT22;41463;53.186;5.552;2023-02-15T03:27:49;2.30;99.90
55598;DHT22;41463;53.186;5.552;2023-02-15T03:30:19;1.30;99.90
55598;DHT22;41463;53.186;5.552;2023-02-15T03:32:50;1.50;99.90
55598;DHT22;41463;53.186;5.552;2023-02-15T03:35:22;0.90;99.90
55598;DHT22;41463;53.186;5.552;2023-02-15T03:38:00;1.60;99.90
55598;DHT22;41463;53.186;5.552;2023-02-15T03:40:29;1.80;99.90
55598;DHT22;41463;53.186;5.552;2023-02-15T03:43:23;1.60;99.90
55598;DHT22;41463;53.186;5.552;2023-02-15T03:46:05;2.10;99.90
55598;DHT22;41463;53.186;5.552;2023-02-15T03:48:41;3.70;99.90
55598;DHT22;41463;53.186;5.552;2023-02-15T03:51:14;2.00;99.90
55598;DHT22;41463;53.186;5.552;2023-02-15T03:56:33;1.50;99.90
55598;DHT22;41463;53.186;5.552;2023-02-15T03:59:02;1.50;99.90
55598;DHT22;41463;53.186;5.552;2023-02-15T04:04:41;1.20;99.90
55598;DHT22;41463;53.186;5.552;2023-02-15T04:07:09;1.30;99.90
55598;DHT22;41463;53.186;5.552;2023-02-15T04:09:47;0.60;99.90
55598;DHT22;41463;53.186;5.552;2023-02-15T04:12:34;1.80;99.90
55598;DHT22;41463;53.186;5.552;2023-02-15T04:15:17;1.10;99.90
55598;DHT22;41463;53.186;5.552;2023-02-15T04:18:17;0.40;99.90
55598;DHT22;41463;53.186;5.552;2023-02-15T04:21:04;3.20;99.90
55598;DHT22;41463;53.186;5.552;2023-02-15T04:23:49;1.80;99.90
55598;DHT22;41463;53.186;5.552;2023-02-15T04:26:36;1.30;99.90
55598;DHT22;41463;53.186;5.552;2023-02-15T04:29:04;1.40;99.90
55598;DHT22;41463;53.186;5.552;2023-02-15T04:31:35;3.30;99.90
55598;DHT22;41463;53.186;5.552;2023-02-15T04:34:01;2.90;99.90
55598;DHT22;41463;53.186;5.552;2023-02-15T04:36:29;3.20;99.90
55598;DHT22;41463;53.186;5.552;2023-02-15T04:39:08;3.20;99.90
55598;DHT22;41463;53.186;5.552;2023-02-15T04:41:35;1.70;99.90
55598;DHT22;41463;53.186;5.552;2023-02-15T04:44:03;1.30;99.90
55598;DHT22;41463;53.186;5.552;2023-02-15T04:46:29;1.00;99.90
55598;DHT22;41463;53.186;5.552;2023-02-15T04:48:56;0.80;99.90
55598;DHT22;41463;53.186;5.552;2023-02-15T04:51:22;1.40;99.90
55598;DHT22;41463;53.186;5.552;2023-02-15T04:53:50;3.60;99.90
55598;DHT22;41463;53.186;5.552;2023-02-15T04:56:18;3.90;99.90
55598;DHT22;41463;53.186;5.552;2023-02-15T04:58:44;3.60;99.90
55598;DHT22;41463;53.186;5.552;2023-02-15T05:01:19;0.90;99.90
55598;DHT22;41463;53.186;5.552;2023-02-15T05:03:48;2.30;99.90
55598;DHT22;41463;53.186;5.552;2023-02-15T05:06:14;3.30;99.90
55598;DHT22;41463;53.186;5.552;2023-02-15T05:08:39;1.60;99.90
55598;DHT22;41463;53.186;5.552;2023-02-15T05:11:07;3.40;99.90
55598;DHT22;41463;53.186;5.552;2023-02-15T05:13:33;0.90;99.90
55598;DHT22;41463;53.186;5.552;2023-02-15T05:15:59;1.30;99.90
55598;DHT22;41463;53.186;5.552;2023-02-15T05:18:25;3.10;99.90
55598;DHT22;41463;53.186;5.552;2023-02-15T05:20:51;1.30;99.90
55598;DHT22;41463;53.186;5.552;2023-02-15T05:23:17;1.00;99.90
55598;DHT22;41463;53.186;5.552;2023-02-15T05:25:47;-0.30;99.90
55598;DHT22;41463;53.186;5.552;2023-02-15T05:28:31;3.00;99.90
55598;DHT22;41463;53.186;5.552;2023-02-15T05:31:16;1.60;99.90
55598;DHT22;41463;53.186;5.552;2023-02-15T05:33:43;1.10;99.90
55598;DHT22;41463;53.186;5.552;2023-02-15T05:36:12;3.10;99.90
55598;DHT22;41463;53.186;5.552;2023-02-15T05:38:41;1.10;99.90
55598;DHT22;41463;53.186;5.552;2023-02-15T05:41:08;1.20;99.90
55598;DHT22;41463;53.186;5.552;2023-02-15T05:43:35;1.20;99.90
55598;DHT22;41463;53.186;5.552;2023-02-15T05:46:02;2.50;99.90
55598;DHT22;41463;53.186;5.552;2023-02-15T05:48:28;1.10;99.90
55598;DHT22;41463;53.186;5.552;2023-02-15T05:51:11;2.60;99.90
55598;DHT22;41463;53.186;5.552;2023-02-15T05:53:41;0.80;99.90
55598;DHT22;41463;53.186;5.552;2023-02-15T05:56:08;1.20;99.90
55598;DHT22;41463;53.186;5.552;2023-02-15T05:58:37;3.40;99.90
55598;DHT22;41463;53.186;5.552;2023-02-15T06:01:11;2.30;99.90
55598;DHT22;41463;53.186;5.552;2023-02-15T06:03:37;1.70;99.90
55598;DHT22;41463;53.186;5.552;2023-02-15T06:06:06;1.30;99.90
55598;DHT22;41463;53.186;5.552;2023-02-15T06:08:33;1.20;99.90
55598;DHT22;41463;53.186;5.552;2023-02-15T06:10:59;2.60;99.90
55598;DHT22;41463;53.186;5.552;2023-02-15T06:13:26;2.70;99.90
55598;DHT22;41463;53.186;5.552;2023-02-15T06:15:52;1.10;99.90
55598;DHT22;41463;53.186;5.552;2023-02-15T06:18:18;1.10;99.90
55598;DHT22;41463;53.186;5.552;2023-02-15T06:20:47;3.30;99.90
55598;DHT22;41463;53.186;5.552;2023-02-15T06:23:13;3.00;99.90
55598;DHT22;41463;53.186;5.552;2023-02-15T06:25:46;1.10;99.90
55598;DHT22;41463;53.186;5.552;2023-02-15T06:28:12;0.90;99.90
55598;DHT22;41463;53.186;5.552;2023-02-15T06:30:38;2.90;99.90
55598;DHT22;41463;53.186;5.552;2023-02-15T06:33:04;3.60;99.90
55598;DHT22;41463;53.186;5.552;2023-02-15T06:35:30;-0.90;99.90
55598;DHT22;41463;53.186;5.552;2023-02-15T06:37:56;1.40;99.90
55598;DHT22;41463;53.186;5.552;2023-02-15T06:40:22;0.30;99.90
55598;DHT22;41463;53.186;5.552;2023-02-15T06:42:47;1.00;99.90
55598;DHT22;41463;53.186;5.552;2023-02-15T06:45:14;1.10;99.90
55598;DHT22;41463;53.186;5.552;2023-02-15T06:47:42;1.00;99.90
55598;DHT22;41463;53.186;5.552;2023-02-15T06:50:09;3.00;99.90
55598;DHT22;41463;53.186;5.552;2023-02-15T06:52:35;1.30;99.90
55598;DHT22;41463;53.186;5.552;2023-02-15T06:55:04;2.90;99.90
55598;DHT22;41463;53.186;5.552;2023-02-15T06:57:36;1.10;99.90
55598;DHT22;41463;53.186;5.552;2023-02-15T07:00:02;2.90;99.90
55598;DHT22;41463;53.186;5.552;2023-02-15T07:02:30;0.80;99.90
55598;DHT22;41463;53.186;5.552;2023-02-15T07:04:56;2.80;99.90
55598;DHT22;41463;53.186;5.552;2023-02-15T07:07:25;3.30;99.90
55598;DHT22;41463;53.186;5.552;2023-02-15T07:09:53;3.40;99.90
55598;DHT22;41463;53.186;5.552;2023-02-15T07:12:28;3.10;99.90
55598;DHT22;41463;53.186;5.552;2023-02-15T07:15:12;1.00;99.90
55598;DHT22;41463;53.186;5.552;2023-02-15T07:17:50;1.40;99.90
55598;DHT22;41463;53.186;5.552;2023-02-15T07:20:21;2.20;99.90
55598;DHT22;41463;53.186;5.552;2023-02-15T07:22:48;1.20;99.90
55598;DHT22;41463;53.186;5.552;2023-02-15T07:25:14;1.10;99.90
55598;DHT22;41463;53.186;5.552;2023-02-15T07:27:43;1.50;99.90
55598;DHT22;41463;53.186;5.552;2023-02-15T07:30:12;1.30;99.90
55598;DHT22;41463;53.186;5.552;2023-02-15T07:32:38;1.30;99.90
55598;DHT22;41463;53.186;5.552;2023-02-15T07:35:27;1.20;99.90
55598;DHT22;41463;53.186;5.552;2023-02-15T07:37:54;0.40;99.90
55598;DHT22;41463;53.186;5.552;2023-02-15T07:42:49;1.20;99.90
55598;DHT22;41463;53.186;5.552;2023-02-15T07:45:17;3.80;99.90
55598;DHT22;41463;53.186;5.552;2023-02-15T07:47:46;-0.80;99.90
55598;DHT22;41463;53.186;5.552;2023-02-15T07:50:11;3.40;99.90
55598;DHT22;41463;53.186;5.552;2023-02-15T07:52:37;3.40;99.90
55598;DHT22;41463;53.186;5.552;2023-02-15T07:55:06;2.80;99.90
55598;DHT22;41463;53.186;5.552;2023-02-15T07:57:35;1.40;99.90
55598;DHT22;41463;53.186;5.552;2023-02-15T08:00:03;1.30;99.90
55598;DHT22;41463;53.186;5.552;2023-02-15T08:02:32;1.40;99.90
55598;DHT22;41463;53.186;5.552;2023-02-15T08:05:08;1.80;99.90
55598;DHT22;41463;53.186;5.552;2023-02-15T08:07:54;2.30;99.90
55598;DHT22;41463;53.186;5.552;2023-02-15T08:10:20;1.70;99.90
55598;DHT22;41463;53.186;5.552;2023-02-15T08:13:11;3.40;99.90
55598;DHT22;41463;53.186;5.552;2023-02-15T08:15:38;1.70;99.90
55598;DHT22;41463;53.186;5.552;2023-02-15T08:18:06;3.40;99.90
55598;DHT22;41463;53.186;5.552;2023-02-15T08:20:42;1.80;99.90
55598;DHT22;41463;53.186;5.552;2023-02-15T08:23:19;1.80;99.90
55598;DHT22;41463;53.186;5.552;2023-02-15T08:25:55;4.10;99.90
55598;DHT22;41463;53.186;5.552;2023-02-15T08:28:32;4.20;99.90
55598;DHT22;41463;53.186;5.552;2023-02-15T08:31:08;3.20;99.90
55598;DHT22;41463;53.186;5.552;2023-02-15T08:33:38;0.10;99.90
55598;DHT22;41463;53.186;5.552;2023-02-15T08:36:06;2.70;99.90
55598;DHT22;41463;53.186;5.552;2023-02-15T08:38:35;0.70;99.90
55598;DHT22;41463;53.186;5.552;2023-02-15T08:43:45;3.90;99.90
55598;DHT22;41463;53.186;5.552;2023-02-15T08:46:15;3.20;99.90
55598;DHT22;41463;53.186;5.552;2023-02-15T08:48:44;3.50;99.90
55598;DHT22;41463;53.186;5.552;2023-02-15T08:51:18;3.10;99.90
55598;DHT22;41463;53.186;5.552;2023-02-15T08:53:47;2.10;99.90
55598;DHT22;41463;53.186;5.552;2023-02-15T08:56:22;2.20;99.90
55598;DHT22;41463;53.186;5.552;2023-02-15T08:58:48;2.20;99.90
55598;DHT22;41463;53.186;5.552;2023-02-15T09:01:16;3.10;99.90
55598;DHT22;41463;53.186;5.552;2023-02-15T09:03:50;4.40;99.90
55598;DHT22;41463;53.186;5.552;2023-02-15T09:06:20;2.80;99.90
55598;DHT22;41463;53.186;5.552;2023-02-15T09:08:46;2.50;99.90
55598;DHT22;41463;53.186;5.552;2023-02-15T09:14:20;3.70;99.90
55598;DHT22;41463;53.186;5.552;2023-02-15T09:16:52;2.70;99.90
55598;DHT22;41463;53.186;5.552;2023-02-15T09:19:19;4.00;99.90
55598;DHT22;41463;53.186;5.552;2023-02-15T09:21:46;0.80;99.90
55598;DHT22;41463;53.186;5.552;2023-02-15T09:24:13;2.90;99.90
55598;DHT22;41463;53.186;5.552;2023-02-15T09:26:41;4.90;99.90
55598;DHT22;41463;53.186;5.552;2023-02-15T09:29:10;2.80;99.90
55598;DHT22;41463;53.186;5.552;2023-02-15T09:31:48;2.90;99.90
55598;DHT22;41463;53.186;5.552;2023-02-15T09:34:15;2.90;99.90
55598;DHT22;41463;53.186;5.552;2023-02-15T09:37:02;3.10;99.90
55598;DHT22;41463;53.186;5.552;2023-02-15T09:39:31;3.30;99.90
55598;DHT22;41463;53.186;5.552;2023-02-15T09:44:58;3.00;99.90
55598;DHT22;41463;53.186;5.552;2023-02-15T09:50:37;2.00;99.90
55598;DHT22;41463;53.186;5.552;2023-02-15T09:58:45;4.30;99.90
55598;DHT22;41463;53.186;5.552;2023-02-15T10:09:55;4.40;99.90
55598;DHT22;41463;53.186;5.552;2023-02-15T10:15:19;5.10;99.90
55598;DHT22;41463;53.186;5.552;2023-02-15T10:26:36;5.30;99.90
55598;DHT22;41463;53.186;5.552;2023-02-15T10:32:26;5.40;99.90
55598;DHT22;41463;53.186;5.552;2023-02-15T10:37:34;5.90;99.90
55598;DHT22;41463;53.186;5.552;2023-02-15T10:42:53;6.60;99.90
55598;DHT22;41463;53.186;5.552;2023-02-15T10:50:43;6.30;99.90
55598;DHT22;41463;53.186;5.552;2023-02-15T11:07:46;6.30;99.90
55598;DHT22;41463;53.186;5.552;2023-02-15T11:10:39;6.40;99.90
55598;DHT22;41463;53.186;5.552;2023-02-15T11:13:16;7.00;99.90
55598;DHT22;41463;53.186;5.552;2023-02-15T11:18:48;7.20;99.90
55598;DHT22;41463;53.186;5.552;2023-02-15T11:21:24;6.80;99.90
55598;DHT22;41463;53.186;5.552;2023-02-15T11:23:56;6.90;99.90
55598;DHT22;41463;53.186;5.552;2023-02-15T11:26:34;7.00;99.90
55598;DHT22;41463;53.186;5.552;2023-02-15T11:29:36;7.20;99.90
55598;DHT22;41463;53.186;5.552;2023-02-15T11:32:33;7.90;99.90
55598;DHT22;41463;53.186;5.552;2023-02-15T11:38:06;7.20;99.90
55598;DHT22;41463;53.186;5.552;2023-02-15T11:40:47;8.40;99.90
55598;DHT22;41463;53.186;5.552;2023-02-15T11:43:35;7.30;99.90
55598;DHT22;41463;53.186;5.552;2023-02-15T11:46:02;7.40;99.90
55598;DHT22;41463;53.186;5.552;2023-02-15T11:48:32;7.40;99.90
55598;DHT22;41463;53.186;5.552;2023-02-15T11:50:59;7.40;99.90
55598;DHT22;41463;53.186;5.552;2023-02-15T11:53:30;7.60;99.90
55598;DHT22;41463;53.186;5.552;2023-02-15T11:55:57;7.60;99.90
55598;DHT22;41463;53.186;5.552;2023-02-15T11:58:28;7.80;99.90
55598;DHT22;41463;53.186;5.552;2023-02-15T12:01:08;7.50;99.90
55598;DHT22;41463;53.186;5.552;2023-02-15T12:03:48;7.70;99.90
55598;DHT22;41463;53.186;5.552;2023-02-15T12:09:32;6.90;99.90
55598;DHT22;41463;53.186;5.552;2023-02-15T12:14:53;7.60;99.90
55598;DHT22;41463;53.186;5.552;2023-02-15T12:17:22;7.90;99.90
55598;DHT22;41463;53.186;5.552;2023-02-15T12:19:49;7.90;99.90
55598;DHT22;41463;53.186;5.552;2023-02-15T12:22:27;7.80;99.90
55598;DHT22;41463;53.186;5.552;2023-02-15T12:25:29;7.90;99.90
55598;DHT22;41463;53.186;5.552;2023-02-15T12:27:56;8.10;99.90
55598;DHT22;41463;53.186;5.552;2023-02-15T12:30:35;7.90;99.90
55598;DHT22;41463;53.186;5.552;2023-02-15T12:33:42;10.10;99.90
55598;DHT22;41463;53.186;5.552;2023-02-15T12:36:18;8.00;99.90
55598;DHT22;41463;53.186;5.552;2023-02-15T12:39:04;8.50;99.90
55598;DHT22;41463;53.186;5.552;2023-02-15T12:41:30;8.10;99.90
55598;DHT22;41463;53.186;5.552;2023-02-15T12:44:16;8.10;99.90
55598;DHT22;41463;53.186;5.552;2023-02-15T12:49:36;6.10;99.90
55598;DHT22;41463;53.186;5.552;2023-02-15T12:54:47;8.20;99.90
55598;DHT22;41463;53.186;5.552;2023-02-15T12:57:23;8.50;99.90
55598;DHT22;41463;53.186;5.552;2023-02-15T12:59:53;8.20;99.90
55598;DHT22;41463;53.186;5.552;2023-02-15T13:02:41;8.40;99.90
55598;DHT22;41463;53.186;5.552;2023-02-15T13:05:23;8.20;99.90
55598;DHT22;41463;53.186;5.552;2023-02-15T13:07:57;8.50;99.90
55598;DHT22;41463;53.186;5.552;2023-02-15T13:10:29;9.80;99.90
55598;DHT22;41463;53.186;5.552;2023-02-15T13:13:00;8.00;99.90
55598;DHT22;41463;53.186;5.552;2023-02-15T13:16:04;8.40;99.90
55598;DHT22;41463;53.186;5.552;2023-02-15T13:21:27;8.20;99.90
55598;DHT22;41463;53.186;5.552;2023-02-15T13:24:00;8.30;99.90
55598;DHT22;41463;53.186;5.552;2023-02-15T13:26:34;8.10;99.90
55598;DHT22;41463;53.186;5.552;2023-02-15T13:29:06;6.50;99.90
55598;DHT22;41463;53.186;5.552;2023-02-15T13:31:34;8.20;99.90
55598;DHT22;41463;53.186;5.552;2023-02-15T13:34:20;8.60;99.90
55598;DHT22;41463;53.186;5.552;2023-02-15T13:36:56;8.40;99.90
55598;DHT22;41463;53.186;5.552;2023-02-15T13:42:31;8.60;99.90
55598;DHT22;41463;53.186;5.552;2023-02-15T13:53:42;9.30;99.90
55598;DHT22;41463;53.186;5.552;2023-02-15T14:05:12;8.10;99.90
55598;DHT22;41463;53.186;5.552;2023-02-15T14:18:53;7.10;99.90
55598;DHT22;41463;53.186;5.552;2023-02-15T14:22:20;8.30;99.90
55598;DHT22;41463;53.186;5.552;2023-02-15T14:27:21;8.70;99.90
55598;DHT22;41463;53.186;5.552;2023-02-15T14:29:52;8.30;99.90
55598;DHT22;41463;53.186;5.552;2023-02-15T14:37:49;8.20;99.90
55598;DHT22;41463;53.186;5.552;2023-02-15T14:48:54;8.40;99.90
55598;DHT22;41463;53.186;5.552;2023-02-15T14:54:08;8.30;99.90
55598;DHT22;41463;53.186;5.552;2023-02-15T14:56:35;8.30;99.90
55598;DHT22;41463;53.186;5.552;2023-02-15T14:59:20;7.20;99.90
55598;DHT22;41463;53.186;5.552;2023-02-15T15:07:22;8.30;99.90
55598;DHT22;41463;53.186;5.552;2023-02-15T15:12:55;8.50;99.90
55598;DHT22;41463;53.186;5.552;2023-02-15T15:20:50;8.40;99.90
55598;DHT22;41463;53.186;5.552;2023-02-15T15:25:46;7.90;99.90
55598;DHT22;41463;53.186;5.552;2023-02-15T15:50:15;8.70;99.90
55598;DHT22;41463;53.186;5.552;2023-02-15T15:52:56;7.70;99.90
55598;DHT22;41463;53.186;5.552;2023-02-15T15:55:26;7.70;99.90
55598;DHT22;41463;53.186;5.552;2023-02-15T15:58:03;7.60;99.90
55598;DHT22;41463;53.186;5.552;2023-02-15T16:00:36;7.90;99.90
55598;DHT22;41463;53.186;5.552;2023-02-15T16:03:04;7.50;99.90
55598;DHT22;41463;53.186;5.552;2023-02-15T16:05:37;5.50;99.90
55598;DHT22;41463;53.186;5.552;2023-02-15T16:08:03;7.40;99.90
55598;DHT22;41463;53.186;5.552;2023-02-15T16:10:30;7.40;99.90
55598;DHT22;41463;53.186;5.552;2023-02-15T16:13:00;7.30;99.90
55598;DHT22;41463;53.186;5.552;2023-02-15T16:18:00;7.60;99.90
55598;DHT22;41463;53.186;5.552;2023-02-15T16:20:31;7.20;99.90
55598;DHT22;41463;53.186;5.552;2023-02-15T16:28:23;7.00;99.90
55598;DHT22;41463;53.186;5.552;2023-02-15T16:31:12;7.00;99.90
55598;DHT22;41463;53.186;5.552;2023-02-15T16:33:40;7.00;99.90
55598;DHT22;41463;53.186;5.552;2023-02-15T16:39:19;6.90;99.90
55598;DHT22;41463;53.186;5.552;2023-02-15T16:41:49;6.90;99.90
55598;DHT22;41463;53.186;5.552;2023-02-15T16:44:27;6.70;99.90
55598;DHT22;41463;53.186;5.552;2023-02-15T16:46:58;6.70;99.90
55598;DHT22;41463;53.186;5.552;2023-02-15T16:49:26;6.80;99.90
55598;DHT22;41463;53.186;5.552;2023-02-15T16:51:58;6.60;99.90
55598;DHT22;41463;53.186;5.552;2023-02-15T16:54:33;6.70;99.90
55598;DHT22;41463;53.186;5.552;2023-02-15T16:57:00;6.60;99.90
55598;DHT22;41463;53.186;5.552;2023-02-15T17:01:55;6.50;99.90
55598;DHT22;41463;53.186;5.552;2023-02-15T17:07:14;6.60;99.90
55598;DHT22;41463;53.186;5.552;2023-02-15T17:09:53;6.50;99.90
55598;DHT22;41463;53.186;5.552;2023-02-15T17:12:51;6.70;99.90
55598;DHT22;41463;53.186;5.552;2023-02-15T17:15:34;6.30;99.90
55598;DHT22;41463;53.186;5.552;2023-02-15T17:20:33;6.30;99.90
55598;DHT22;41463;53.186;5.552;2023-02-15T17:23:03;8.70;99.90
55598;DHT22;41463;53.186;5.552;2023-02-15T17:25:37;6.30;99.90
55598;DHT22;41463;53.186;5.552;2023-02-15T17:28:17;6.30;99.90
55598;DHT22;41463;53.186;5.552;2023-02-15T17:30:54;7.20;99.90
55598;DHT22;41463;53.186;5.552;2023-02-15T17:36:19;6.30;99.90
55598;DHT22;41463;53.186;5.552;2023-02-15T17:39:20;6.50;99.90
55598;DHT22;41463;53.186;5.552;2023-02-15T17:41:50;6.30;99.90
55598;DHT22;41463;53.186;5.552;2023-02-15T17:44:18;5.20;99.90
55598;DHT22;41463;53.186;5.552;2023-02-15T17:46:44;5.80;99.90
55598;DHT22;41463;53.186;5.552;2023-02-15T17:49:26;6.30;99.90
55598;DHT22;41463;53.186;5.552;2023-02-15T17:52:02;6.50;99.90
55598;DHT22;41463;53.186;5.552;2023-02-15T17:54:28;6.10;99.90
55598;DHT22;41463;53.186;5.552;2023-02-15T17:57:16;6.70;99.90
55598;DHT22;41463;53.186;5.552;2023-02-15T17:59:42;6.20;99.90
55598;DHT22;41463;53.186;5.552;2023-02-15T18:02:27;6.20;99.90
55598;DHT22;41463;53.186;5.552;2023-02-15T18:05:15;6.20;99.90
55598;DHT22;41463;53.186;5.552;2023-02-15T18:08:00;6.40;99.90
55598;DHT22;41463;53.186;5.552;2023-02-15T18:10:44;6.20;99.90
55598;DHT22;41463;53.186;5.552;2023-02-15T18:13:28;6.30;99.90
55598;DHT22;41463;53.186;5.552;2023-02-15T18:15:54;6.10;99.90
55598;DHT22;41463;53.186;5.552;2023-02-15T18:18:23;6.30;99.90
55598;DHT22;41463;53.186;5.552;2023-02-15T18:20:50;6.20;99.90
55598;DHT22;41463;53.186;5.552;2023-02-15T18:23:15;6.50;99.90
55598;DHT22;41463;53.186;5.552;2023-02-15T18:25:42;6.20;99.90
55598;DHT22;41463;53.186;5.552;2023-02-15T18:28:08;6.30;99.90
55598;DHT22;41463;53.186;5.552;2023-02-15T18:30:35;6.20;99.90
55598;DHT22;41463;53.186;5.552;2023-02-15T18:33:01;6.30;99.90
55598;DHT22;41463;53.186;5.552;2023-02-15T18:35:29;6.50;99.90
55598;DHT22;41463;53.186;5.552;2023-02-15T18:37:57;5.90;99.90
55598;DHT22;41463;53.186;5.552;2023-02-15T18:40:28;6.30;99.90
55598;DHT22;41463;53.186;5.552;2023-02-15T18:42:54;6.60;99.90
55598;DHT22;41463;53.186;5.552;2023-02-15T18:45:25;6.10;99.90
55598;DHT22;41463;53.186;5.552;2023-02-15T18:47:53;6.10;99.90
55598;DHT22;41463;53.186;5.552;2023-02-15T18:50:23;6.40;99.90
55598;DHT22;41463;53.186;5.552;2023-02-15T18:52:51;6.10;99.90
55598;DHT22;41463;53.186;5.552;2023-02-15T18:55:20;6.10;99.90
55598;DHT22;41463;53.186;5.552;2023-02-15T18:57:47;6.20;99.90
55598;DHT22;41463;53.186;5.552;2023-02-15T19:00:26;6.10;99.90
55598;DHT22;41463;53.186;5.552;2023-02-15T19:02:55;6.20;99.90
55598;DHT22;41463;53.186;5.552;2023-02-15T19:05:22;6.30;99.90
55598;DHT22;41463;53.186;5.552;2023-02-15T19:07:49;6.20;99.90
55598;DHT22;41463;53.186;5.552;2023-02-15T19:10:22;6.30;99.90
55598;DHT22;41463;53.186;5.552;2023-02-15T19:12:49;6.30;99.90
55598;DHT22;41463;53.186;5.552;2023-02-15T19:15:21;6.40;99.90
55598;DHT22;41463;53.186;5.552;2023-02-15T19:17:47;6.30;99.90
55598;DHT22;41463;53.186;5.552;2023-02-15T19:20:19;6.30;99.90
55598;DHT22;41463;53.186;5.552;2023-02-15T19:22:50;6.40;99.90
55598;DHT22;41463;53.186;5.552;2023-02-15T19:25:28;5.60;99.90
55598;DHT22;41463;53.186;5.552;2023-02-15T19:27:55;6.50;99.90
55598;DHT22;41463;53.186;5.552;2023-02-15T19:30:28;8.80;99.90
55598;DHT22;41463;53.186;5.552;2023-02-15T19:32:55;6.30;99.90
55598;DHT22;41463;53.186;5.552;2023-02-15T19:35:22;6.30;99.90
55598;DHT22;41463;53.186;5.552;2023-02-15T19:37:55;6.40;99.90
55598;DHT22;41463;53.186;5.552;2023-02-15T19:40:23;8.00;99.90
55598;DHT22;41463;53.186;5.552;2023-02-15T19:42:50;6.40;99.90
55598;DHT22;41463;53.186;5.552;2023-02-15T19:45:18;6.60;99.90
55598;DHT22;41463;53.186;5.552;2023-02-15T19:47:45;6.20;99.90
55598;DHT22;41463;53.186;5.552;2023-02-15T19:50:18;6.20;99.90
55598;DHT22;41463;53.186;5.552;2023-02-15T19:52:44;6.30;99.90
55598;DHT22;41463;53.186;5.552;2023-02-15T19:55:28;6.30;99.90
55598;DHT22;41463;53.186;5.552;2023-02-15T19:57:59;5.60;99.90
55598;DHT22;41463;53.186;5.552;2023-02-15T20:00:27;5.50;99.90
55598;DHT22;41463;53.186;5.552;2023-02-15T20:02:54;6.40;99.90
55598;DHT22;41463;53.186;5.552;2023-02-15T20:05:21;7.10;99.90
55598;DHT22;41463;53.186;5.552;2023-02-15T20:07:50;6.10;99.90
55598;DHT22;41463;53.186;5.552;2023-02-15T20:10:24;6.10;99.90
55598;DHT22;41463;53.186;5.552;2023-02-15T20:12:51;6.30;99.90
55598;DHT22;41463;53.186;5.552;2023-02-15T20:15:25;6.20;99.90
55598;DHT22;41463;53.186;5.552;2023-02-15T20:17:55;6.20;99.90